sensor_id;sensor_type;location;lat;lon;timestamp;pressure;altitude;pressure_sealevel;temperature;humidity
72636;BME280;60679;48.888;15.544;2023-03-22T00:01:43;95954.22;;;10.20;55.56
72636;BME280;60679;48.888;15.544;2023-03-22T00:04:10;95955.88;;;10.21;55.40
72636;BME280;60679;48.888;15.544;2023-03-22T00:06:35;95952.22;;;10.16;55.49
72636;BME280;60679;48.888;15.544;2023-03-22T00:09:01;95952.41;;;10.14;55.50
72636;BME280;60679;48.888;15.544;2023-03-22T00:11:26;95953.66;;;10.12;55.87
72636;BME280;60679;48.888;15.544;2023-03-22T00:13:52;95948.72;;;10.09;55.86
72636;BME280;60679;48.888;15.544;2023-03-22T00:16:18;95950.00;;;10.06;55.84
72636;BME280;60679;48.888;15.544;2023-03-22T00:18:43;95950.34;;;9.98;56.13
72636;BME280;60679;48.888;15.544;2023-03-22T00:21:13;95952.88;;;9.93;56.28
72636;BME280;60679;48.888;15.544;2023-03-22T00:23:40;95953.56;;;9.88;56.56
72636;BME280;60679;48.888;15.544;2023-03-22T00:26:07;95955.66;;;9.86;56.48
72636;BME280;60679;48.888;15.544;2023-03-22T00:28:33;95946.97;;;9.84;56.25
72636;BME280;60679;48.888;15.544;2023-03-22T00:31:00;95946.38;;;9.82;56.50
72636;BME280;60679;48.888;15.544;2023-03-22T00:33:27;95940.00;;;9.77;56.43
72636;BME280;60679;48.888;15.544;2023-03-22T00:35:58;95943.78;;;9.76;56.56
72636;BME280;60679;48.888;15.544;2023-03-22T00:38:24;95936.72;;;9.75;56.87
72636;BME280;60679;48.888;15.544;2023-03-22T00:40:49;95946.47;;;9.76;56.71
72636;BME280;60679;48.888;15.544;2023-03-22T00:43:15;95942.94;;;9.75;56.71
72636;BME280;60679;48.888;15.544;2023-03-22T00:45:41;95942.81;;;9.70;56.94
72636;BME280;60679;48.888;15.544;2023-03-22T00:48:09;95941.00;;;9.64;56.95
72636;BME280;60679;48.888;15.544;2023-03-22T00:50:36;95938.53;;;9.63;57.09
72636;BME280;60679;48.888;15.544;2023-03-22T00:53:01;95940.41;;;9.62;57.12
72636;BME280;60679;48.888;15.544;2023-03-22T00:55:27;95941.22;;;9.63;57.13
72636;BME280;60679;48.888;15.544;2023-03-22T00:57:52;95944.75;;;9.63;57.24
72636;BME280;60679;48.888;15.544;2023-03-22T01:00:17;95948.13;;;9.59;57.16
72636;BME280;60679;48.888;15.544;2023-03-22T01:02:43;95930.16;;;9.53;57.40
72636;BME280;60679;48.888;15.544;2023-03-22T01:05:09;95932.25;;;9.51;57.14
72636;BME280;60679;48.888;15.544;2023-03-22T01:07:42;95932.72;;;9.48;57.36
72636;BME280;60679;48.888;15.544;2023-03-22T01:10:10;95928.81;;;9.44;57.34
72636;BME280;60679;48.888;15.544;2023-03-22T01:12:37;95934.63;;;9.41;57.43
72636;BME280;60679;48.888;15.544;2023-03-22T01:15:04;95928.66;;;9.39;57.37
72636;BME280;60679;48.888;15.544;2023-03-22T01:17:30;95925.59;;;9.35;57.58
72636;BME280;60679;48.888;15.544;2023-03-22T01:19:55;95921.31;;;9.27;57.60
72636;BME280;60679;48.888;15.544;2023-03-22T01:22:20;95921.53;;;9.26;57.65
72636;BME280;60679;48.888;15.544;2023-03-22T01:24:47;95912.88;;;9.24;58.06
72636;BME280;60679;48.888;15.544;2023-03-22T01:27:13;95918.31;;;9.17;57.86
72636;BME280;60679;48.888;15.544;2023-03-22T01:29:39;95917.72;;;9.15;57.92
72636;BME280;60679;48.888;15.544;2023-03-22T01:32:05;95916.16;;;9.08;58.02
72636;BME280;60679;48.888;15.544;2023-03-22T01:34:30;95911.66;;;9.02;58.04
72636;BME280;60679;48.888;15.544;2023-03-22T01:36:55;95906.94;;;8.97;58.16
72636;BME280;60679;48.888;15.544;2023-03-22T01:39:21;95910.81;;;9.01;58.41
72636;BME280;60679;48.888;15.544;2023-03-22T01:41:46;95914.72;;;9.05;58.22
72636;BME280;60679;48.888;15.544;2023-03-22T01:44:14;95906.78;;;9.10;58.40
72636;BME280;60679;48.888;15.544;2023-03-22T01:46:42;95914.44;;;9.13;58.33
72636;BME280;60679;48.888;15.544;2023-03-22T01:49:13;95905.28;;;9.14;58.27
72636;BME280;60679;48.888;15.544;2023-03-22T01:51:40;95911.16;;;9.11;58.44
72636;BME280;60679;48.888;15.544;2023-03-22T01:54:15;95905.81;;;9.05;58.46
72636;BME280;60679;48.888;15.544;2023-03-22T01:56:43;95908.81;;;8.97;58.52
72636;BME280;60679;48.888;15.544;2023-03-22T01:59:11;95908.47;;;8.87;58.64
72636;BME280;60679;48.888;15.544;2023-03-22T02:01:41;95906.06;;;8.79;58.76
72636;BME280;60679;48.888;15.544;2023-03-22T02:04:13;95912.78;;;8.69;58.96
72636;BME280;60679;48.888;15.544;2023-03-22T02:06:41;95906.84;;;8.61;58.57
72636;BME280;60679;48.888;15.544;2023-03-22T02:09:09;95901.97;;;8.51;59.09
72636;BME280;60679;48.888;15.544;2023-03-22T02:11:39;95902.84;;;8.45;59.29
72636;BME280;60679;48.888;15.544;2023-03-22T02:17:18;95897.59;;;8.32;59.18
72636;BME280;60679;48.888;15.544;2023-03-22T02:20:24;95893.66;;;8.28;59.48
72636;BME280;60679;48.888;15.544;2023-03-22T02:23:26;95894.91;;;8.32;59.40
72636;BME280;60679;48.888;15.544;2023-03-22T02:42:53;95891.81;;;8.53;59.57
72636;BME280;60679;48.888;15.544;2023-03-22T02:45:42;95893.91;;;8.51;59.61
72636;BME280;60679;48.888;15.544;2023-03-22T02:56:38;95893.41;;;8.36;60.03
72636;BME280;60679;48.888;15.544;2023-03-22T02:58:47;95900.28;;;8.32;59.88
72636;BME280;60679;48.888;15.544;2023-03-22T03:01:37;95893.41;;;8.36;60.13
72636;BME280;60679;48.888;15.544;2023-03-22T03:04:06;95897.31;;;8.40;59.99
72636;BME280;60679;48.888;15.544;2023-03-22T03:06:37;95903.97;;;8.38;59.86
72636;BME280;60679;48.888;15.544;2023-03-22T03:09:04;95901.84;;;8.40;60.06
72636;BME280;60679;48.888;15.544;2023-03-22T03:11:30;95905.38;;;8.40;59.89
72636;BME280;60679;48.888;15.544;2023-03-22T03:13:55;95899.38;;;8.38;60.22
72636;BME280;60679;48.888;15.544;2023-03-22T03:16:24;95910.09;;;8.45;60.32
72636;BME280;60679;48.888;15.544;2023-03-22T03:19:05;95911.69;;;8.52;60.12
72636;BME280;60679;48.888;15.544;2023-03-22T03:21:41;95914.16;;;8.54;59.90
72636;BME280;60679;48.888;15.544;2023-03-22T03:24:24;95912.50;;;8.53;60.03
72636;BME280;60679;48.888;15.544;2023-03-22T03:32:27;95916.06;;;8.47;60.46
72636;BME280;60679;48.888;15.544;2023-03-22T03:37:36;95913.56;;;8.52;60.23
72636;BME280;60679;48.888;15.544;2023-03-22T03:40:08;95913.56;;;8.52;60.51
72636;BME280;60679;48.888;15.544;2023-03-22T03:42:37;95918.56;;;8.48;60.38
72636;BME280;60679;48.888;15.544;2023-03-22T03:45:05;95915.47;;;8.45;60.68
72636;BME280;60679;48.888;15.544;2023-03-22T03:47:31;95912.78;;;8.45;60.72
72636;BME280;60679;48.888;15.544;2023-03-22T03:49:58;95908.66;;;8.42;60.71
72636;BME280;60679;48.888;15.544;2023-03-22T03:52:24;95911.41;;;8.36;60.72
72636;BME280;60679;48.888;15.544;2023-03-22T03:54:50;95901.31;;;8.31;60.72
72636;BME280;60679;48.888;15.544;2023-03-22T03:57:15;95902.56;;;8.29;60.70
72636;BME280;60679;48.888;15.544;2023-03-22T03:59:41;95894.50;;;8.29;60.60
72636;BME280;60679;48.888;15.544;2023-03-22T04:02:06;95910.19;;;8.32;60.88
72636;BME280;60679;48.888;15.544;2023-03-22T04:04:32;95904.16;;;8.36;60.92
72636;BME280;60679;48.888;15.544;2023-03-22T04:07:00;95909.94;;;8.40;60.96
72636;BME280;60679;48.888;15.544;2023-03-22T04:09:31;95920.09;;;8.38;60.91
72636;BME280;60679;48.888;15.544;2023-03-22T04:11:57;95916.56;;;8.37;60.80
72636;BME280;60679;48.888;15.544;2023-03-22T04:14:23;95911.03;;;8.32;61.11
72636;BME280;60679;48.888;15.544;2023-03-22T04:16:49;95914.34;;;8.28;60.91
72636;BME280;60679;48.888;15.544;2023-03-22T04:19:15;95913.31;;;8.29;61.25
72636;BME280;60679;48.888;15.544;2023-03-22T04:21:41;95913.28;;;8.35;61.25
72636;BME280;60679;48.888;15.544;2023-03-22T04:24:06;95908.91;;;8.41;61.03
72636;BME280;60679;48.888;15.544;2023-03-22T04:26:32;95918.16;;;8.45;60.96
72636;BME280;60679;48.888;15.544;2023-03-22T04:28:58;95919.38;;;8.49;61.19
72636;BME280;60679;48.888;15.544;2023-03-22T04:31:24;95917.06;;;8.52;61.03
72636;BME280;60679;48.888;15.544;2023-03-22T04:33:50;95928.22;;;8.56;61.16
72636;BME280;60679;48.888;15.544;2023-03-22T04:36:23;95925.47;;;8.62;61.25
72636;BME280;60679;48.888;15.544;2023-03-22T04:38:49;95922.94;;;8.67;61.18
72636;BME280;60679;48.888;15.544;2023-03-22T04:41:15;95926.84;;;8.72;61.19
72636;BME280;60679;48.888;15.544;2023-03-22T04:43:41;95934.25;;;8.76;61.14
72636;BME280;60679;48.888;15.544;2023-03-22T04:46:08;95931.38;;;8.78;61.16
72636;BME280;60679;48.888;15.544;2023-03-22T04:48:39;95933.81;;;8.79;61.27
72636;BME280;60679;48.888;15.544;2023-03-22T04:51:06;95926.56;;;8.80;61.12
72636;BME280;60679;48.888;15.544;2023-03-22T04:53:32;95929.03;;;8.81;61.31
72636;BME280;60679;48.888;15.544;2023-03-22T04:55:57;95931.53;;;8.83;61.09
72636;BME280;60679;48.888;15.544;2023-03-22T04:58:24;95930.25;;;8.85;61.25
72636;BME280;60679;48.888;15.544;2023-03-22T05:00:51;95935.19;;;8.88;61.14
72636;BME280;60679;48.888;15.544;2023-03-22T05:03:19;95935.59;;;8.92;61.00
72636;BME280;60679;48.888;15.544;2023-03-22T05:05:53;95940.72;;;8.93;60.93
72636;BME280;60679;48.888;15.544;2023-03-22T05:08:22;95935.59;;;8.92;61.10
72636;BME280;60679;48.888;15.544;2023-03-22T05:10:52;95930.19;;;8.92;61.08
72636;BME280;60679;48.888;15.544;2023-03-22T05:13:19;95937.44;;;8.91;61.10
72636;BME280;60679;48.888;15.544;2023-03-22T05:15:45;95944.25;;;8.94;60.90
72636;BME280;60679;48.888;15.544;2023-03-22T05:18:11;95953.97;;;8.95;61.21
72636;BME280;60679;48.888;15.544;2023-03-22T05:20:39;95950.22;;;8.96;61.04
72636;BME280;60679;48.888;15.544;2023-03-22T05:23:05;95955.63;;;8.96;61.42
72636;BME280;60679;48.888;15.544;2023-03-22T05:25:30;95956.44;;;8.96;61.16
72636;BME280;60679;48.888;15.544;2023-03-22T05:27:56;95952.94;;;8.96;61.19
72636;BME280;60679;48.888;15.544;2023-03-22T05:30:30;95945.69;;;8.96;60.96
72636;BME280;60679;48.888;15.544;2023-03-22T05:32:59;95956.00;;;8.99;61.03
72636;BME280;60679;48.888;15.544;2023-03-22T05:35:30;95956.16;;;9.04;60.96
72636;BME280;60679;48.888;15.544;2023-03-22T05:37:56;95947.94;;;9.17;60.77
72636;BME280;60679;48.888;15.544;2023-03-22T05:40:25;95950.06;;;9.34;60.60
72636;BME280;60679;48.888;15.544;2023-03-22T05:42:51;95951.56;;;9.48;60.52
72636;BME280;60679;48.888;15.544;2023-03-22T05:45:18;95954.94;;;9.61;60.09
72636;BME280;60679;48.888;15.544;2023-03-22T05:47:44;95946.09;;;9.72;59.91
72636;BME280;60679;48.888;15.544;2023-03-22T05:50:12;95951.41;;;9.79;60.02
72636;BME280;60679;48.888;15.544;2023-03-22T05:52:38;95949.69;;;9.84;60.18
72636;BME280;60679;48.888;15.544;2023-03-22T05:55:04;95951.81;;;9.94;59.93
72636;BME280;60679;48.888;15.544;2023-03-22T05:57:31;95947.25;;;9.95;59.91
72636;BME280;60679;48.888;15.544;2023-03-22T05:59:56;95947.34;;;9.88;59.93
72636;BME280;60679;48.888;15.544;2023-03-22T06:02:22;95946.81;;;9.79;60.15
72636;BME280;60679;48.888;15.544;2023-03-22T06:04:48;95947.13;;;9.71;60.42
72636;BME280;60679;48.888;15.544;2023-03-22T06:07:14;95949.00;;;9.71;60.35
72636;BME280;60679;48.888;15.544;2023-03-22T06:09:39;95944.00;;;9.74;60.36
72636;BME280;60679;48.888;15.544;2023-03-22T06:12:05;95939.25;;;9.88;60.14
72636;BME280;60679;48.888;15.544;2023-03-22T06:14:31;95940.78;;;10.14;59.78
72636;BME280;60679;48.888;15.544;2023-03-22T06:16:56;95948.06;;;10.43;59.35
72636;BME280;60679;48.888;15.544;2023-03-22T06:19:22;95944.97;;;10.69;59.04
72636;BME280;60679;48.888;15.544;2023-03-22T06:21:50;95945.81;;;10.93;58.92
72636;BME280;60679;48.888;15.544;2023-03-22T06:24:17;95946.19;;;11.20;58.37
72636;BME280;60679;48.888;15.544;2023-03-22T06:26:43;95939.69;;;11.44;58.17
72636;BME280;60679;48.888;15.544;2023-03-22T06:29:08;95942.94;;;11.57;58.16
72636;BME280;60679;48.888;15.544;2023-03-22T06:31:34;95944.25;;;11.43;58.55
72636;BME280;60679;48.888;15.544;2023-03-22T06:33:59;95951.44;;;11.38;58.58
72636;BME280;60679;48.888;15.544;2023-03-22T06:36:25;95950.50;;;11.32;58.65
72636;BME280;60679;48.888;15.544;2023-03-22T06:38:50;95948.16;;;11.36;58.79
72636;BME280;60679;48.888;15.544;2023-03-22T06:41:16;95940.16;;;11.29;58.95
72636;BME280;60679;48.888;15.544;2023-03-22T06:43:41;95949.00;;;11.25;58.91
72636;BME280;60679;48.888;15.544;2023-03-22T06:46:06;95950.50;;;11.21;58.71
72636;BME280;60679;48.888;15.544;2023-03-22T06:48:32;95953.00;;;11.22;58.68
72636;BME280;60679;48.888;15.544;2023-03-22T06:50:57;95954.63;;;11.35;58.64
72636;BME280;60679;48.888;15.544;2023-03-22T06:53:24;95964.13;;;11.60;58.41
72636;BME280;60679;48.888;15.544;2023-03-22T06:55:49;95962.19;;;11.96;57.86
72636;BME280;60679;48.888;15.544;2023-03-22T06:58:15;95953.31;;;12.12;57.95
72636;BME280;60679;48.888;15.544;2023-03-22T07:00:41;95949.78;;;12.11;57.95
72636;BME280;60679;48.888;15.544;2023-03-22T07:03:06;95946.91;;;11.90;58.19
72636;BME280;60679;48.888;15.544;2023-03-22T07:05:31;95952.25;;;11.73;58.58
72636;BME280;60679;48.888;15.544;2023-03-22T07:07:57;95955.44;;;11.70;58.40
72636;BME280;60679;48.888;15.544;2023-03-22T07:10:22;95960.72;;;11.53;58.74
72636;BME280;60679;48.888;15.544;2023-03-22T07:12:47;95965.88;;;11.43;58.90
72636;BME280;60679;48.888;15.544;2023-03-22T07:15:13;95968.38;;;11.33;58.89
72636;BME280;60679;48.888;15.544;2023-03-22T07:17:38;95970.16;;;11.28;58.89
72636;BME280;60679;48.888;15.544;2023-03-22T07:20:04;95959.91;;;11.53;58.65
72636;BME280;60679;48.888;15.544;2023-03-22T07:22:30;95955.63;;;12.20;57.65
72636;BME280;60679;48.888;15.544;2023-03-22T07:24:55;95953.22;;;12.80;56.65
72636;BME280;60679;48.888;15.544;2023-03-22T07:27:21;95947.25;;;13.28;56.05
72636;BME280;60679;48.888;15.544;2023-03-22T07:29:46;95947.25;;;13.66;55.65
72636;BME280;60679;48.888;15.544;2023-03-22T07:32:12;95953.47;;;14.05;55.15
72636;BME280;60679;48.888;15.544;2023-03-22T07:34:37;95945.75;;;14.40;54.72
72636;BME280;60679;48.888;15.544;2023-03-22T07:37:03;95934.94;;;14.72;54.32
72636;BME280;60679;48.888;15.544;2023-03-22T07:39:29;95939.91;;;15.12;54.02
72636;BME280;60679;48.888;15.544;2023-03-22T07:41:55;95935.06;;;15.56;53.42
72636;BME280;60679;48.888;15.544;2023-03-22T07:44:20;95942.19;;;16.14;52.55
72636;BME280;60679;48.888;15.544;2023-03-22T07:46:46;95935.16;;;16.28;52.60
72636;BME280;60679;48.888;15.544;2023-03-22T07:49:12;95936.91;;;16.69;51.90
72636;BME280;60679;48.888;15.544;2023-03-22T07:51:39;95936.69;;;17.21;51.40
72636;BME280;60679;48.888;15.544;2023-03-22T07:54:04;95946.50;;;17.63;50.40
72636;BME280;60679;48.888;15.544;2023-03-22T07:56:30;95947.31;;;17.48;50.48
72636;BME280;60679;48.888;15.544;2023-03-22T07:58:55;95937.16;;;17.89;50.12
72636;BME280;60679;48.888;15.544;2023-03-22T08:01:20;95944.50;;;18.68;49.31
72636;BME280;60679;48.888;15.544;2023-03-22T08:03:46;95936.63;;;19.34;48.69
72636;BME280;60679;48.888;15.544;2023-03-22T08:06:11;95937.38;;;20.02;47.74
72636;BME280;60679;48.888;15.544;2023-03-22T08:08:37;95933.50;;;20.32;47.04
72636;BME280;60679;48.888;15.544;2023-03-22T08:11:04;95941.56;;;20.84;46.64
72636;BME280;60679;48.888;15.544;2023-03-22T08:13:30;95937.94;;;21.07;46.26
72636;BME280;60679;48.888;15.544;2023-03-22T08:15:55;95932.91;;;21.47;45.55
72636;BME280;60679;48.888;15.544;2023-03-22T08:18:20;95944.13;;;21.50;45.30
72636;BME280;60679;48.888;15.544;2023-03-22T08:20:52;95938.66;;;21.32;45.47
72636;BME280;60679;48.888;15.544;2023-03-22T08:23:17;95942.72;;;21.34;45.36
72636;BME280;60679;48.888;15.544;2023-03-22T08:25:43;95956.13;;;21.86;44.53
72636;BME280;60679;48.888;15.544;2023-03-22T08:28:08;95956.13;;;21.86;44.55
72636;BME280;60679;48.888;15.544;2023-03-22T08:30:35;95956.19;;;22.14;44.55
72636;BME280;60679;48.888;15.544;2023-03-22T08:33:00;95954.75;;;21.89;44.27
72636;BME280;60679;48.888;15.544;2023-03-22T08:35:26;95952.28;;;21.55;44.33
72636;BME280;60679;48.888;15.544;2023-03-22T08:37:55;95950.28;;;22.48;42.98
72636;BME280;60679;48.888;15.544;2023-03-22T08:40:21;95956.19;;;22.82;42.56
72636;BME280;60679;48.888;15.544;2023-03-22T08:42:48;95956.38;;;22.99;42.67
72636;BME280;60679;48.888;15.544;2023-03-22T08:45:13;95947.44;;;23.51;41.50
72636;BME280;60679;48.888;15.544;2023-03-22T08:47:39;95953.09;;;23.33;41.70
72636;BME280;60679;48.888;15.544;2023-03-22T08:50:05;95948.75;;;23.18;41.83
72636;BME280;60679;48.888;15.544;2023-03-22T08:52:30;95941.41;;;23.72;41.21
72636;BME280;60679;48.888;15.544;2023-03-22T08:54:55;95932.59;;;23.92;40.99
72636;BME280;60679;48.888;15.544;2023-03-22T08:57:21;95939.84;;;24.41;39.76
72636;BME280;60679;48.888;15.544;2023-03-22T08:59:48;95943.63;;;24.14;39.98
72636;BME280;60679;48.888;15.544;2023-03-22T09:02:13;95930.81;;;24.57;39.59
72636;BME280;60679;48.888;15.544;2023-03-22T09:04:39;95935.00;;;25.03;39.05
72636;BME280;60679;48.888;15.544;2023-03-22T09:07:04;95935.81;;;25.63;38.21
72636;BME280;60679;48.888;15.544;2023-03-22T09:09:29;95933.97;;;26.48;37.50
72636;BME280;60679;48.888;15.544;2023-03-22T09:11:55;95932.34;;;26.47;37.25
72636;BME280;60679;48.888;15.544;2023-03-22T09:14:22;95931.66;;;26.88;36.69
72636;BME280;60679;48.888;15.544;2023-03-22T09:16:47;95927.91;;;28.08;35.48
72636;BME280;60679;48.888;15.544;2023-03-22T09:19:12;95928.25;;;28.76;34.28
72636;BME280;60679;48.888;15.544;2023-03-22T09:21:38;95923.53;;;27.86;34.43
72636;BME280;60679;48.888;15.544;2023-03-22T09:24:03;95922.63;;;27.94;34.70
72636;BME280;60679;48.888;15.544;2023-03-22T09:26:29;95916.88;;;28.69;33.97
72636;BME280;60679;48.888;15.544;2023-03-22T09:28:54;95920.13;;;28.95;32.68
72636;BME280;60679;48.888;15.544;2023-03-22T09:31:20;95912.75;;;29.39;32.46
72636;BME280;60679;48.888;15.544;2023-03-22T09:33:48;95902.00;;;29.25;32.21
72636;BME280;60679;48.888;15.544;2023-03-22T09:36:14;95907.88;;;29.36;32.36
72636;BME280;60679;48.888;15.544;2023-03-22T09:38:39;95901.28;;;29.96;31.60
72636;BME280;60679;48.888;15.544;2023-03-22T09:41:33;95897.41;;;31.44;30.34
72636;BME280;60679;48.888;15.544;2023-03-22T09:44:04;95894.94;;;32.62;28.56
72636;BME280;60679;48.888;15.544;2023-03-22T09:46:37;95891.81;;;33.45;28.09
72636;BME280;60679;48.888;15.544;2023-03-22T09:49:09;95891.69;;;33.61;27.45
72636;BME280;60679;48.888;15.544;2023-03-22T09:51:48;95894.63;;;32.67;27.50
72636;BME280;60679;48.888;15.544;2023-03-22T09:56:52;95888.75;;;32.52;27.50
72636;BME280;60679;48.888;15.544;2023-03-22T09:59:48;95888.91;;;33.35;26.58
72636;BME280;60679;48.888;15.544;2023-03-22T10:05:21;95884.66;;;36.85;23.01
72636;BME280;60679;48.888;15.544;2023-03-22T10:08:10;95885.44;;;36.51;23.39
72636;BME280;60679;48.888;15.544;2023-03-22T10:10:40;95883.66;;;35.21;25.02
72636;BME280;60679;48.888;15.544;2023-03-22T10:13:14;95871.28;;;36.22;23.54
72636;BME280;60679;48.888;15.544;2023-03-22T10:16:12;95873.59;;;37.90;22.10
72636;BME280;60679;48.888;15.544;2023-03-22T10:18:44;95870.56;;;38.91;21.36
72636;BME280;60679;48.888;15.544;2023-03-22T10:21:15;95861.50;;;40.45;20.54
72636;BME280;60679;48.888;15.544;2023-03-22T10:23:46;95868.25;;;40.81;19.86
72636;BME280;60679;48.888;15.544;2023-03-22T10:26:20;95865.91;;;39.89;20.61
72636;BME280;60679;48.888;15.544;2023-03-22T10:28:59;95867.53;;;39.90;20.45
72636;BME280;60679;48.888;15.544;2023-03-22T10:31:28;95856.16;;;41.04;19.58
72636;BME280;60679;48.888;15.544;2023-03-22T10:34:01;95861.09;;;42.06;18.98
72636;BME280;60679;48.888;15.544;2023-03-22T10:36:30;95865.19;;;41.42;18.73
72636;BME280;60679;48.888;15.544;2023-03-22T10:39:35;95858.53;;;39.61;19.54
72636;BME280;60679;48.888;15.544;2023-03-22T10:42:04;95857.50;;;41.19;18.41
72636;BME280;60679;48.888;15.544;2023-03-22T10:44:59;95855.63;;;41.95;17.98
72636;BME280;60679;48.888;15.544;2023-03-22T10:47:39;95844.16;;;37.94;21.55
72636;BME280;60679;48.888;15.544;2023-03-22T10:50:28;95848.16;;;34.95;23.29
72636;BME280;60679;48.888;15.544;2023-03-22T10:55:23;95847.16;;;40.02;18.11
72636;BME280;60679;48.888;15.544;2023-03-22T10:58:04;95840.47;;;41.42;17.28
72636;BME280;60679;48.888;15.544;2023-03-22T11:00:34;95847.44;;;43.65;16.10
72636;BME280;60679;48.888;15.544;2023-03-22T11:03:00;95841.84;;;44.45;15.84
72636;BME280;60679;48.888;15.544;2023-03-22T11:05:28;95840.13;;;43.52;16.46
72636;BME280;60679;48.888;15.544;2023-03-22T11:07:55;95833.91;;;37.31;21.07
72636;BME280;60679;48.888;15.544;2023-03-22T11:10:30;95827.41;;;41.88;16.93
72636;BME280;60679;48.888;15.544;2023-03-22T11:15:32;95822.59;;;45.46;14.56
72636;BME280;60679;48.888;15.544;2023-03-22T11:18:03;95824.47;;;46.88;14.08
72636;BME280;60679;48.888;15.544;2023-03-22T11:20:31;95822.69;;;45.08;14.73
72636;BME280;60679;48.888;15.544;2023-03-22T11:22:59;95816.00;;;43.85;15.40
72636;BME280;60679;48.888;15.544;2023-03-22T11:25:34;95810.59;;;44.16;15.26
72636;BME280;60679;48.888;15.544;2023-03-22T11:30:30;95801.94;;;40.25;17.36
72636;BME280;60679;48.888;15.544;2023-03-22T11:33:20;95798.00;;;43.88;14.75
72636;BME280;60679;48.888;15.544;2023-03-22T11:35:52;95786.47;;;44.71;13.91
72636;BME280;60679;48.888;15.544;2023-03-22T11:38:43;95793.53;;;44.29;14.12
72636;BME280;60679;48.888;15.544;2023-03-22T11:43:46;95779.69;;;45.03;14.07
72636;BME280;60679;48.888;15.544;2023-03-22T11:46:14;95772.63;;;46.77;12.75
72636;BME280;60679;48.888;15.544;2023-03-22T11:48:42;95780.47;;;48.13;12.51
72636;BME280;60679;48.888;15.544;2023-03-22T11:51:15;95774.31;;;47.15;12.68
72636;BME280;60679;48.888;15.544;2023-03-22T11:53:46;95771.38;;;46.78;12.68
72636;BME280;60679;48.888;15.544;2023-03-22T11:56:17;95765.13;;;48.43;12.09
72636;BME280;60679;48.888;15.544;2023-03-22T12:01:18;95751.31;;;49.60;11.56
72636;BME280;60679;48.888;15.544;2023-03-22T12:03:49;95753.75;;;48.91;11.84
72636;BME280;60679;48.888;15.544;2023-03-22T12:06:25;95759.06;;;47.81;11.63
72636;BME280;60679;48.888;15.544;2023-03-22T12:09:04;95756.53;;;47.56;11.85
72636;BME280;60679;48.888;15.544;2023-03-22T12:11:39;95745.84;;;47.66;11.90
72636;BME280;60679;48.888;15.544;2023-03-22T12:14:20;95744.88;;;47.78;11.45
72636;BME280;60679;48.888;15.544;2023-03-22T12:16:50;95734.38;;;46.93;12.10
72636;BME280;60679;48.888;15.544;2023-03-22T12:21:54;95738.38;;;47.68;11.59
72636;BME280;60679;48.888;15.544;2023-03-22T12:24:27;95725.38;;;45.93;12.04
72636;BME280;60679;48.888;15.544;2023-03-22T12:26:58;95731.34;;;44.99;12.34
72636;BME280;60679;48.888;15.544;2023-03-22T12:29:25;95731.84;;;40.10;14.60
72636;BME280;60679;48.888;15.544;2023-03-22T12:32:06;95724.81;;;38.04;16.22
72636;BME280;60679;48.888;15.544;2023-03-22T12:34:47;95717.06;;;44.40;12.21
72636;BME280;60679;48.888;15.544;2023-03-22T12:37:19;95717.81;;;43.77;12.42
72636;BME280;60679;48.888;15.544;2023-03-22T12:39:52;95712.69;;;37.38;16.39
72636;BME280;60679;48.888;15.544;2023-03-22T12:42:24;95712.56;;;41.92;13.05
72636;BME280;60679;48.888;15.544;2023-03-22T12:44:57;95706.91;;;35.99;16.82
72636;BME280;60679;48.888;15.544;2023-03-22T12:47:37;95703.31;;;39.06;14.65
72636;BME280;60679;48.888;15.544;2023-03-22T12:50:16;95698.44;;;36.48;15.88
72636;BME280;60679;48.888;15.544;2023-03-22T12:52:50;95702.34;;;37.07;15.13
72636;BME280;60679;48.888;15.544;2023-03-22T12:55:27;95690.28;;;34.51;17.71
72636;BME280;60679;48.888;15.544;2023-03-22T12:57:53;95695.97;;;35.48;16.74
72636;BME280;60679;48.888;15.544;2023-03-22T13:00:47;95683.78;;;39.49;14.38
72636;BME280;60679;48.888;15.544;2023-03-22T13:05:44;95682.53;;;43.75;12.57
72636;BME280;60679;48.888;15.544;2023-03-22T13:08:10;95681.25;;;38.09;15.77
72636;BME280;60679;48.888;15.544;2023-03-22T13:10:40;95684.19;;;43.31;12.19
72636;BME280;60679;48.888;15.544;2023-03-22T13:15:33;95670.59;;;33.89;18.49
72636;BME280;60679;48.888;15.544;2023-03-22T13:18:00;95663.38;;;32.78;18.52
72636;BME280;60679;48.888;15.544;2023-03-22T13:20:28;95664.88;;;37.93;14.89
72636;BME280;60679;48.888;15.544;2023-03-22T13:25:29;95668.69;;;42.62;11.69
72636;BME280;60679;48.888;15.544;2023-03-22T13:28:40;95661.31;;;39.39;13.66
72636;BME280;60679;48.888;15.544;2023-03-22T13:30:52;95658.66;;;35.51;16.52
72636;BME280;60679;48.888;15.544;2023-03-22T13:33:24;95656.19;;;36.76;15.19
72636;BME280;60679;48.888;15.544;2023-03-22T13:35:58;95656.69;;;37.51;14.71
72636;BME280;60679;48.888;15.544;2023-03-22T13:38:37;95643.50;;;32.00;18.66
72636;BME280;60679;48.888;15.544;2023-03-22T13:43:51;95652.34;;;28.39;20.98
72636;BME280;60679;48.888;15.544;2023-03-22T14:04:39;95634.13;;;28.14;21.28
72636;BME280;60679;48.888;15.544;2023-03-22T14:10:06;95636.97;;;26.63;22.27
72636;BME280;60679;48.888;15.544;2023-03-22T14:15:47;95616.13;;;35.84;15.89
72636;BME280;60679;48.888;15.544;2023-03-22T14:18:26;95625.09;;;31.73;18.90
72636;BME280;60679;48.888;15.544;2023-03-22T14:21:02;95614.84;;;28.88;21.02
72636;BME280;60679;48.888;15.544;2023-03-22T14:26:06;95610.97;;;28.10;21.63
72636;BME280;60679;48.888;15.544;2023-03-22T14:28:37;95612.44;;;28.59;21.17
72636;BME280;60679;48.888;15.544;2023-03-22T14:31:06;95602.53;;;28.74;21.08
72636;BME280;60679;48.888;15.544;2023-03-22T14:33:33;95604.91;;;35.73;15.69
72636;BME280;60679;48.888;15.544;2023-03-22T14:36:04;95599.09;;;34.85;16.98
72636;BME280;60679;48.888;15.544;2023-03-22T14:38:35;95599.94;;;33.22;17.88
72636;BME280;60679;48.888;15.544;2023-03-22T14:41:23;95595.72;;;33.39;17.64